Pagrindinis puslapis
METAR-TAF:

METAR-TAF

Oro uostai :

Mosjøen, Norvegija

platuma: 65-48N, ilguma: 013-08E, Aukštis: 70 m

Dabartinis oras

Ataskaita buvo paskelbta 15 minutes, ne 05:20 UTC
Vėjas 3 kt iš Pietų/Pietvakarių
Temperatūra 11°C
Drėgmė 94%
Slėgis 1004 hPa
Matomumas 10 km arba daugiau
Mažai debesys ne aukštis 4500 ft

METAR: ENMS 200520Z 20003KT 9999 FEW045 11/10 Q1004 RMK WIND 412FT VRB02KT

Laikas: 07:35 (05:35 UTC)


TAF: trūkstamas

Orai ataskaitas ir orų prognozės (METAR, TAF).

turimą stotys yra geltonos ir raudonos taškus žemėlapyje.

Perkelti pele per norėdami pamatyti stoties vardą.

Tada spustelėkite, norėdami matyti oro stebėjimo ir prognozės.

Norėdami pakeisti žemėlapį: spustelėkite ant žalios mygtukų su juodo kryžiaus žemyn,; žalią mygtuką su brūkšneliu, jei norite nutolinti; arba žalių rodyklių gretimoms žemėlapius.


METAR-TAF: